Waynesfield, OH (45896)

1:17 PM EST on February 14, 2016 (GMT -0500)
Lima Allen County | | Change Station
CLOSE
Current Station
Airport
Location: Lima,
Elevation: 974 ft
Nearby Weather Stations

Elev 974 ft 40.71 °N, 84.03 °W | Updated 24 minutes ago

Clear
Clear
18 °F
Feels Like 4 °F
N
14
Wind Variable Wind from SSE

Today
High -- | Low -- °F
--% Chance of Precip.
Yesterday
High -- | Low -- °F
Precip. -- in
Pressure 30.39 in
Visibility 10.0 miles
Clouds Clear
Windchill 4 °F
Dew Point 5 °F
Humidity 57%
Rainfall 0.00 in
Snow Depth Not available.
7:31 AM 6:09 PM
Waxing Crescent, 44% visible
METAR KAOH 141753Z AUTO 16012KT 10SM CLR M08/M15 A3033 RMK AO2 SLP290 T10781150 11072 21167 56029
Pressure 30.39 in
Visibility 10.0 miles
Clouds Clear
Windchill 4 °F
Dew Point 5 °F
Humidity 57%
Rainfall 0.00 in
Snow Depth Not available.
7:31 AM 6:09 PM
Waxing Crescent, 44% visible
METAR KAOH 141753Z AUTO 16012KT 10SM CLR M08/M15 A3033 RMK AO2 SLP290 T10781150 11072 21167 56029

10-Day Weather Forecast

Almanac

Astronomy

Feb. 14, 2016 Rise Set
Actual Time
Civil Twilight
Nautical Twilight
Astronomical Twilight
Moon
Length of Visible Light
Length of Day
Tomorrow will be .
, % of the Moon is Illuminated

Today's Extremes

State Highs State Lows

Community

WunderPhotos

Upload Photos

1,892,867 photos uploaded!

WunderBlog® & News

Nearby

Air Quality

  Air Quality AQ Index Pollutant
Not available.

Snow Depth

Station Depth Elevation

Earthquake Activity

City Distance Mag. Time & Date
Minimum magnitude displayed is 2.5.

Coastal Water Temperatures

Place Temperature

Stations

Nearby Weather Stations

Station Location Temp. Windchill Dew Point Humidity Wind Precip. Elev Updated Type
                   

Watches & Warnings

There are currently no watches in effect.